createdAt,value
2023-05-06T00:04:51.990Z,1010.31
2023-05-06T00:11:11.998Z,1010.29
2023-05-06T00:17:35.047Z,1010.22
2023-05-06T00:23:55.001Z,1010.18
2023-05-06T00:30:17.994Z,1010.12
2023-05-06T00:36:38.127Z,1010.12
2023-05-06T00:43:01.014Z,1010.04
2023-05-06T00:49:20.992Z,1010.02
2023-05-06T00:55:44.090Z,1010
2023-05-06T01:02:04.022Z,1010
2023-05-06T01:08:27.004Z,1010
2023-05-06T01:14:47.100Z,1009.96
2023-05-06T01:21:10.002Z,1009.98
2023-05-06T01:27:30.031Z,1010
2023-05-06T01:33:53.014Z,1010.02
2023-05-06T01:40:13.065Z,1010.02
2023-05-06T01:46:36.031Z,1010
2023-05-06T01:52:56.093Z,1010.02
2023-05-06T01:59:18.996Z,1010.04
2023-05-06T02:05:39.020Z,1010.06
2023-05-06T02:12:02.074Z,1010.08
2023-05-06T02:18:22.009Z,1010.06
2023-05-06T02:24:44.997Z,1010.08
2023-05-06T02:31:05.100Z,1010.08
2023-05-06T02:37:27.979Z,1010.12
2023-05-06T02:43:47.985Z,1010.1
2023-05-06T02:50:11.110Z,1010.08
2023-05-06T02:56:31.005Z,1010.04
2023-05-06T03:02:54.021Z,1010
2023-05-06T03:09:14.019Z,1010.04
2023-05-06T03:15:37.072Z,1010
2023-05-06T03:21:56.993Z,1010.04
2023-05-06T03:38:43.124Z,1010.02
2023-05-06T03:45:02.978Z,1009.98
2023-05-06T03:51:25.983Z,1010
2023-05-06T03:57:46.123Z,1010
2023-05-06T04:04:09.064Z,1010
2023-05-06T04:10:28.982Z,1010.04
2023-05-06T04:16:52.005Z,1010.08
2023-05-06T04:23:11.978Z,1010.06
2023-05-06T04:29:34.980Z,1010.08
2023-05-06T04:35:55.101Z,1010.16
2023-05-06T04:42:18.010Z,1010.22
2023-05-06T04:48:37.999Z,1010.24
2023-05-06T04:55:01.126Z,1010.29
2023-05-06T05:01:21.074Z,1010.35
2023-05-06T05:07:44.059Z,1010.45
2023-05-06T05:14:04.098Z,1010.49
2023-05-06T05:20:27.043Z,1010.51
2023-05-06T05:26:47.050Z,1010.63
2023-05-06T05:33:10.137Z,1010.65
2023-05-06T05:39:30.041Z,1010.67
2023-05-06T05:45:53.033Z,1010.75
2023-05-06T05:52:13.107Z,1010.79
2023-05-06T05:58:36.038Z,1010.83
2023-05-06T06:04:56.116Z,1010.83
2023-05-06T06:11:19.115Z,1010.85
2023-05-06T06:17:39.037Z,1010.87
2023-05-06T06:24:01.984Z,1010.79
2023-05-06T06:30:22.083Z,1010.73
2023-05-06T06:36:45.026Z,1010.69
2023-05-06T06:43:05.018Z,1010.73
2023-05-06T06:49:28.083Z,1010.77
2023-05-06T06:55:47.996Z,1010.75
2023-05-06T07:02:11.000Z,1010.75
2023-05-06T07:08:31.089Z,1010.75
2023-05-06T07:14:53.993Z,1010.75
2023-05-06T07:21:13.997Z,1010.81
2023-05-06T07:27:37.048Z,1010.81
2023-05-06T07:33:56.981Z,1010.79
2023-05-06T07:40:19.992Z,1010.77
2023-05-06T07:46:40.109Z,1010.73
2023-05-06T07:53:02.984Z,1010.75
2023-05-06T07:59:23.004Z,1010.75
2023-05-06T08:05:46.097Z,1010.77
2023-05-06T08:12:05.995Z,1010.79
2023-05-06T08:18:29.115Z,1010.79
2023-05-06T08:24:49.181Z,1010.79
2023-05-06T08:31:12.027Z,1010.79
2023-05-06T08:37:31.993Z,1010.83
2023-05-06T08:43:55.100Z,1010.79
2023-05-06T09:06:23.010Z,1010.63
2023-05-06T09:12:46.022Z,1010.53
2023-05-06T09:19:06.001Z,1010.49
2023-05-06T09:25:29.079Z,1010.47
2023-05-06T09:31:48.987Z,1010.43
2023-05-06T09:38:12.020Z,1010.39
2023-05-06T09:44:32.148Z,1010.31
2023-05-06T09:50:55.006Z,1010.29
2023-05-06T09:57:15.010Z,1010.24
2023-05-06T10:03:38.238Z,1010.25
2023-05-06T10:09:58.007Z,1010.16
2023-05-06T10:16:21.098Z,1010.12
2023-05-06T10:22:41.043Z,1010.04
2023-05-06T10:29:03.987Z,1009.94
2023-05-06T10:35:24.003Z,1009.9
2023-05-06T10:41:47.078Z,1009.86
2023-05-06T10:48:07.066Z,1009.8
2023-05-06T10:54:30.030Z,1009.75
2023-05-06T11:00:50.107Z,1009.71
2023-05-06T11:07:13.010Z,1009.71
2023-05-06T11:13:33.034Z,1009.63
2023-05-06T11:19:56.016Z,1009.53
2023-05-06T11:26:16.236Z,1009.47
2023-05-06T11:32:39.034Z,1009.45
2023-05-06T11:38:59.159Z,1009.41
2023-05-06T11:45:22.021Z,1009.39
2023-05-06T11:51:41.987Z,1009.33
2023-05-06T11:58:05.174Z,1009.28
2023-05-06T12:04:25.021Z,1009.2
2023-05-06T12:10:48.010Z,1009.16
2023-05-06T12:17:08.082Z,1009.14
2023-05-06T12:23:31.072Z,1009.08
2023-05-06T12:29:50.998Z,1009.08
2023-05-06T12:36:14.104Z,1009.08
2023-05-06T12:42:34.012Z,1009.04
2023-05-06T12:48:56.984Z,1009.06
2023-05-06T12:55:17.021Z,1009.02
2023-05-06T13:01:40.068Z,1009
2023-05-06T13:07:59.991Z,1008.96
2023-05-06T13:14:23.009Z,1009
2023-05-06T13:20:42.999Z,1009.02
2023-05-06T13:27:05.994Z,1009
2023-05-06T13:33:26.033Z,1009.02
2023-05-06T13:39:48.985Z,1008.98
2023-05-06T13:46:09.036Z,1008.94
2023-05-06T13:52:32.029Z,1008.92
2023-05-06T13:58:51.980Z,1008.92
2023-05-06T14:05:15.079Z,1008.98
2023-05-06T14:11:35.087Z,1009.04
2023-05-06T14:17:58.028Z,1009.2
2023-05-06T14:24:18.005Z,1009.33
2023-05-06T14:46:48.087Z,1009.43
2023-05-06T14:53:10.995Z,1009.47
2023-05-06T14:59:31.040Z,1009.51
2023-05-06T15:05:54.123Z,1009.55
2023-05-06T15:12:13.979Z,1009.61
2023-05-06T15:18:37.048Z,1009.67
2023-05-06T15:24:57.134Z,1009.71
2023-05-06T15:31:20.059Z,1009.69
2023-05-06T15:37:39.982Z,1009.71
2023-05-06T15:44:03.105Z,1009.71
2023-05-06T15:50:32.306Z,1009.71
2023-05-06T15:56:46.007Z,1009.69
2023-05-06T16:03:07.421Z,1009.73
2023-05-06T16:09:29.057Z,1009.75
2023-05-06T16:15:49.069Z,1009.71
2023-05-06T16:22:12.138Z,1009.65
2023-05-06T16:28:31.998Z,1009.61
2023-05-06T16:34:55.063Z,1009.53
2023-05-06T16:41:15.228Z,1009.41
2023-05-06T16:47:38.129Z,1009.35
2023-05-06T16:53:57.990Z,1009.31
2023-05-06T17:00:21.098Z,1009.26
2023-05-06T17:06:41.036Z,1009.22
2023-05-06T17:13:03.997Z,1009.22
2023-05-06T17:19:24.192Z,1009.18
2023-05-06T17:25:46.985Z,1009.22
2023-05-06T17:32:07.005Z,1009.18
2023-05-06T17:38:30.145Z,1009.18
2023-05-06T17:44:49.968Z,1009.1
2023-05-06T17:51:13.047Z,1009.02
2023-05-06T17:57:33.011Z,1009.04
2023-05-06T18:03:56.063Z,1009
2023-05-06T18:10:15.989Z,1008.98
2023-05-06T18:16:39.134Z,1009.08
2023-05-06T18:22:59.001Z,1009.12
2023-05-06T18:29:22.021Z,1009.18
2023-05-06T18:35:42.147Z,1009.2
2023-05-06T18:42:04.973Z,1009.2
2023-05-06T18:48:25.028Z,1009.2
2023-05-06T18:54:48.067Z,1009.2
2023-05-06T19:01:08.030Z,1009.24
2023-05-06T19:07:30.996Z,1009.24
2023-05-06T19:13:51.097Z,1009.28
2023-05-06T19:20:13.984Z,1009.33
2023-05-06T19:26:34.026Z,1009.33
2023-05-06T19:32:57.585Z,1009.31
2023-05-06T19:39:17.039Z,1009.31
2023-05-06T19:45:40.032Z,1009.3
2023-05-06T20:07:31.107Z,1009.28
2023-05-06T20:13:53.975Z,1009.22
2023-05-06T20:20:14.044Z,1009.2
2023-05-06T20:26:37.037Z,1009.18
2023-05-06T20:32:56.994Z,1009.14
2023-05-06T20:39:20.084Z,1009.2
2023-05-06T20:45:40.044Z,1009.2
2023-05-06T20:52:03.013Z,1009.22
2023-05-06T20:58:23.005Z,1009.28
2023-05-06T21:04:46.103Z,1009.28
2023-05-06T21:11:06.020Z,1009.3
2023-05-06T21:17:29.217Z,1009.31
2023-05-06T21:23:49.228Z,1009.3
2023-05-06T21:30:12.006Z,1009.3
2023-05-06T21:36:31.997Z,1009.28
2023-05-06T21:42:55.062Z,1009.3
2023-05-06T21:49:14.979Z,1009.3
2023-05-06T21:55:38.033Z,1009.28
2023-05-06T22:19:52.088Z,1009.1
2023-05-06T22:26:11.987Z,1009.06
2023-05-06T22:32:35.013Z,1009.06
2023-05-06T22:38:55.222Z,1009.04
2023-05-06T22:45:17.977Z,1009.1
2023-05-06T22:51:38.028Z,1009.16
2023-05-06T22:58:01.070Z,1009.2
2023-05-06T23:04:21.042Z,1009.24
2023-05-06T23:10:44.026Z,1009.28
2023-05-06T23:17:04.089Z,1009.28
2023-05-06T23:23:26.976Z,1009.26
2023-05-06T23:29:46.989Z,1009.28
2023-05-06T23:36:10.076Z,1009.3
2023-05-06T23:42:30.042Z,1009.33
2023-05-06T23:48:52.979Z,1009.31
2023-05-06T23:55:13.505Z,1009.3
